createdAt,value
2022-12-08T00:01:28.048Z,100.00
2022-12-08T00:03:56.187Z,100.00
2022-12-08T00:06:47.721Z,100.00
2022-12-08T00:09:24.107Z,100.00
2022-12-08T00:12:00.432Z,100.00
2022-12-08T00:14:39.670Z,100.00
2022-12-08T00:17:09.970Z,100.00
2022-12-08T00:19:39.328Z,100.00
2022-12-08T00:22:08.219Z,100.00
2022-12-08T00:24:39.736Z,100.00
2022-12-08T00:27:09.559Z,100.00
2022-12-08T00:29:37.328Z,100.00
2022-12-08T00:32:05.444Z,100.00
2022-12-08T00:34:33.289Z,100.00
2022-12-08T00:37:00.710Z,100.00
2022-12-08T00:39:27.967Z,100.00
2022-12-08T00:42:13.644Z,100.00
2022-12-08T00:44:42.537Z,100.00
2022-12-08T00:47:10.947Z,100.00
2022-12-08T00:49:38.314Z,100.00
2022-12-08T00:52:06.005Z,100.00
2022-12-08T00:54:33.348Z,100.00
2022-12-08T00:57:00.642Z,100.00
2022-12-08T00:59:27.980Z,100.00
2022-12-08T01:01:55.286Z,100.00
2022-12-08T01:04:22.705Z,100.00
2022-12-08T01:06:50.544Z,100.00
2022-12-08T01:09:18.298Z,100.00
2022-12-08T01:11:46.562Z,100.00
2022-12-08T01:14:14.658Z,100.00
2022-12-08T01:16:42.539Z,100.00
2022-12-08T01:19:12.135Z,100.00
2022-12-08T01:21:40.142Z,100.00
2022-12-08T01:24:10.254Z,100.00
2022-12-08T01:26:37.648Z,100.00
2022-12-08T01:29:05.198Z,100.00
2022-12-08T01:31:32.676Z,100.00
2022-12-08T01:34:00.040Z,100.00
2022-12-08T01:36:29.928Z,100.00
2022-12-08T01:38:58.438Z,100.00
2022-12-08T01:41:29.116Z,100.00
2022-12-08T01:44:24.027Z,100.00
2022-12-08T01:46:53.655Z,100.00
2022-12-08T01:49:27.247Z,100.00
2022-12-08T01:51:59.800Z,100.00
2022-12-08T01:54:31.603Z,100.00
2022-12-08T01:57:00.225Z,100.00
2022-12-08T01:59:30.629Z,100.00
2022-12-08T02:01:58.382Z,100.00
2022-12-08T02:04:25.666Z,100.00
2022-12-08T02:06:53.858Z,100.00
2022-12-08T02:09:21.689Z,100.00
2022-12-08T02:11:51.187Z,100.00
2022-12-08T02:14:18.693Z,100.00
2022-12-08T02:16:59.191Z,100.00
2022-12-08T02:19:47.924Z,100.00
2022-12-08T02:22:20.627Z,100.00
2022-12-08T02:25:21.762Z,100.00
2022-12-08T02:28:28.055Z,100.00
2022-12-08T02:31:44.794Z,100.00
2022-12-08T02:34:17.402Z,100.00
2022-12-08T02:36:58.041Z,100.00
2022-12-08T02:39:28.323Z,100.00
2022-12-08T02:42:29.406Z,100.00
2022-12-08T02:45:30.188Z,100.00
2022-12-08T02:47:59.348Z,100.00
2022-12-08T02:50:28.140Z,100.00
2022-12-08T02:52:55.545Z,100.00
2022-12-08T02:55:31.944Z,100.00
2022-12-08T02:58:32.555Z,100.00
2022-12-08T03:01:05.902Z,100.00
2022-12-08T03:03:49.042Z,100.00
2022-12-08T03:06:42.629Z,100.00
2022-12-08T03:09:34.170Z,100.00
2022-12-08T03:12:17.582Z,100.00
2022-12-08T03:14:49.699Z,100.00
2022-12-08T03:17:20.375Z,100.00
2022-12-08T03:19:49.340Z,100.00
2022-12-08T03:22:21.290Z,100.00
2022-12-08T03:24:49.435Z,100.00
2022-12-08T03:27:26.659Z,100.00
2022-12-08T03:29:55.801Z,100.00
2022-12-08T03:32:23.015Z,100.00
2022-12-08T03:34:51.934Z,100.00
2022-12-08T03:37:20.809Z,100.00
2022-12-08T03:39:49.466Z,100.00
2022-12-08T03:42:16.883Z,100.00
2022-12-08T03:44:44.273Z,100.00
2022-12-08T03:47:11.710Z,100.00
2022-12-08T03:49:39.117Z,100.00
2022-12-08T03:52:06.503Z,100.00
2022-12-08T03:54:33.874Z,100.00
2022-12-08T03:57:01.208Z,100.00
2022-12-08T03:59:28.502Z,100.00
2022-12-08T04:01:55.860Z,100.00
2022-12-08T04:04:23.309Z,100.00
2022-12-08T04:06:51.409Z,100.00
2022-12-08T04:09:18.928Z,100.00
2022-12-08T04:11:46.331Z,100.00
2022-12-08T04:14:13.666Z,100.00
2022-12-08T04:16:41.238Z,100.00
2022-12-08T04:19:08.549Z,100.00
2022-12-08T04:21:35.938Z,100.00
2022-12-08T04:24:03.390Z,100.00
2022-12-08T04:26:30.730Z,100.00
2022-12-08T04:28:57.997Z,100.00
2022-12-08T04:31:25.439Z,100.00
2022-12-08T04:33:52.761Z,100.00
2022-12-08T04:36:20.028Z,100.00
2022-12-08T04:38:47.390Z,100.00
2022-12-08T04:41:16.040Z,100.00
2022-12-08T04:43:44.437Z,100.00
2022-12-08T04:46:12.119Z,100.00
2022-12-08T04:48:40.828Z,100.00
2022-12-08T04:51:17.460Z,100.00
2022-12-08T04:53:46.852Z,100.00
2022-12-08T04:56:19.139Z,100.00
2022-12-08T04:58:46.987Z,100.00
2022-12-08T05:01:14.937Z,100.00
2022-12-08T05:03:42.402Z,100.00
2022-12-08T05:06:13.447Z,100.00
2022-12-08T05:08:42.650Z,100.00
2022-12-08T05:11:11.939Z,100.00
2022-12-08T05:13:39.456Z,100.00
2022-12-08T05:16:12.845Z,100.00
2022-12-08T05:18:41.398Z,100.00
2022-12-08T05:21:09.626Z,100.00
2022-12-08T05:23:37.301Z,100.00
2022-12-08T05:26:04.976Z,100.00
2022-12-08T05:28:41.344Z,100.00
2022-12-08T05:31:11.317Z,100.00
2022-12-08T05:33:38.717Z,100.00
2022-12-08T05:36:06.465Z,100.00
2022-12-08T05:38:34.022Z,100.00
2022-12-08T05:41:01.459Z,100.00
2022-12-08T05:43:29.165Z,100.00
2022-12-08T05:45:56.717Z,100.00
2022-12-08T05:48:24.246Z,100.00
2022-12-08T05:50:52.122Z,100.00
2022-12-08T05:53:20.744Z,100.00
2022-12-08T05:55:48.374Z,100.00
2022-12-08T05:58:18.013Z,100.00
2022-12-08T06:00:46.643Z,100.00
2022-12-08T06:03:16.728Z,100.00
2022-12-08T06:05:46.124Z,100.00
2022-12-08T06:08:14.222Z,100.00
2022-12-08T06:10:43.219Z,100.00
2022-12-08T06:13:10.916Z,100.00
2022-12-08T06:15:39.373Z,100.00
2022-12-08T06:18:07.833Z,100.00
2022-12-08T06:20:35.317Z,100.00
2022-12-08T06:23:03.539Z,100.00
2022-12-08T06:25:30.922Z,100.00
2022-12-08T06:27:58.189Z,100.00
2022-12-08T06:30:26.114Z,100.00
2022-12-08T06:32:53.444Z,100.00
2022-12-08T06:35:20.790Z,100.00
2022-12-08T06:37:48.206Z,100.00
2022-12-08T06:40:15.631Z,100.00
2022-12-08T06:42:44.655Z,100.00
2022-12-08T06:45:14.275Z,100.00
2022-12-08T06:47:42.158Z,100.00
2022-12-08T06:50:10.930Z,100.00
2022-12-08T06:52:47.231Z,100.00
2022-12-08T06:55:42.982Z,100.00
2022-12-08T06:58:08.210Z,100.00
2022-12-08T07:00:35.581Z,100.00
2022-12-08T07:03:03.052Z,100.00
2022-12-08T07:05:30.405Z,100.00
2022-12-08T07:07:57.750Z,100.00
2022-12-08T07:10:25.062Z,100.00
2022-12-08T07:12:52.427Z,100.00
2022-12-08T07:15:20.553Z,100.00
2022-12-08T07:17:48.787Z,100.00
2022-12-08T07:20:16.653Z,100.00
2022-12-08T07:22:51.327Z,100.00
2022-12-08T07:25:19.875Z,100.00
2022-12-08T07:27:47.398Z,100.00
2022-12-08T07:30:15.160Z,100.00
2022-12-08T07:32:42.509Z,100.00
2022-12-08T07:35:10.993Z,100.00
2022-12-08T07:37:38.579Z,100.00
2022-12-08T07:40:07.783Z,100.00
2022-12-08T07:42:35.613Z,100.00
2022-12-08T07:45:02.934Z,100.00
2022-12-08T07:47:30.239Z,100.00
2022-12-08T07:49:57.712Z,100.00
2022-12-08T07:52:25.181Z,100.00
2022-12-08T07:54:52.481Z,100.00
2022-12-08T07:57:19.809Z,100.00
2022-12-08T07:59:47.177Z,100.00
2022-12-08T08:02:26.215Z,100.00
2022-12-08T08:04:54.012Z,100.00
2022-12-08T08:07:21.505Z,100.00
2022-12-08T08:09:48.874Z,100.00
2022-12-08T08:12:31.204Z,100.00
2022-12-08T08:15:03.511Z,100.00
2022-12-08T08:17:31.038Z,100.00
2022-12-08T08:19:58.492Z,100.00
2022-12-08T08:22:26.916Z,100.00
2022-12-08T08:24:54.464Z,100.00
2022-12-08T08:27:22.623Z,100.00
2022-12-08T08:29:49.917Z,100.00
2022-12-08T08:32:17.331Z,100.00
2022-12-08T08:34:44.643Z,100.00
2022-12-08T08:37:12.880Z,100.00
2022-12-08T08:39:40.200Z,100.00
2022-12-08T08:42:07.499Z,100.00
2022-12-08T08:44:34.819Z,100.00
2022-12-08T08:47:02.098Z,100.00
2022-12-08T08:49:29.634Z,100.00
2022-12-08T08:51:56.978Z,100.00
2022-12-08T08:54:24.407Z,100.00
2022-12-08T08:56:52.728Z,100.00
2022-12-08T08:59:20.084Z,100.00
2022-12-08T09:01:47.578Z,100.00
2022-12-08T09:04:15.124Z,100.00
2022-12-08T09:06:44.134Z,100.00
2022-12-08T09:09:12.159Z,100.00
2022-12-08T09:11:39.682Z,100.00
2022-12-08T09:14:06.991Z,100.00
2022-12-08T09:16:40.372Z,100.00
2022-12-08T09:19:09.858Z,100.00
2022-12-08T09:21:37.171Z,100.00
2022-12-08T09:24:04.584Z,99.98
2022-12-08T09:26:31.893Z,99.92
2022-12-08T09:29:00.090Z,99.47
2022-12-08T09:31:27.478Z,97.18
2022-12-08T09:33:54.891Z,98.87
2022-12-08T09:36:22.301Z,99.06
2022-12-08T09:38:51.119Z,94.96
2022-12-08T09:41:40.429Z,92.97
2022-12-08T09:44:16.766Z,91.24
2022-12-08T09:46:44.391Z,91.31
2022-12-08T09:49:16.489Z,89.67
2022-12-08T09:51:46.196Z,89.57
2022-12-08T09:54:22.257Z,90.37
2022-12-08T09:56:55.126Z,91.41
2022-12-08T09:59:23.919Z,89.92
2022-12-08T10:01:51.928Z,89.00
2022-12-08T10:04:33.872Z,87.57
2022-12-08T10:07:32.198Z,87.63
2022-12-08T10:10:06.423Z,85.06
2022-12-08T10:12:33.728Z,85.37
2022-12-08T10:15:18.928Z,86.21
2022-12-08T10:17:49.100Z,85.70
2022-12-08T10:20:19.415Z,85.56
2022-12-08T10:22:53.106Z,85.09
2022-12-08T10:25:35.510Z,85.99
2022-12-08T10:28:03.201Z,86.13
2022-12-08T10:30:32.048Z,85.66
2022-12-08T10:33:00.085Z,86.31
2022-12-08T10:35:46.532Z,85.81
2022-12-08T10:38:34.875Z,87.70
2022-12-08T10:41:07.716Z,87.81
2022-12-08T10:43:38.581Z,87.41
2022-12-08T10:46:15.094Z,87.29
2022-12-08T10:48:51.584Z,86.66
2022-12-08T10:51:51.435Z,87.62
2022-12-08T10:54:33.139Z,88.40
2022-12-08T10:57:00.403Z,86.87
2022-12-08T10:59:27.732Z,86.46
2022-12-08T11:01:57.237Z,85.25
2022-12-08T11:04:34.583Z,84.67
2022-12-08T11:07:04.446Z,84.38
2022-12-08T11:09:58.335Z,83.66
2022-12-08T11:12:29.702Z,83.03
2022-12-08T11:15:03.336Z,83.32
2022-12-08T11:17:40.073Z,82.97
2022-12-08T11:20:10.697Z,83.05
2022-12-08T11:22:43.388Z,83.23
2022-12-08T11:25:20.806Z,84.21
2022-12-08T11:27:53.873Z,84.00
2022-12-08T11:30:28.018Z,84.07
2022-12-08T11:33:16.699Z,83.98
2022-12-08T11:35:47.814Z,84.47
2022-12-08T11:38:22.363Z,84.15
2022-12-08T11:41:16.139Z,83.73
2022-12-08T11:43:47.234Z,83.05
2022-12-08T11:46:50.934Z,83.25
2022-12-08T11:49:19.161Z,82.28
2022-12-08T11:52:21.227Z,82.68
2022-12-08T11:55:18.979Z,82.90
2022-12-08T11:57:46.864Z,84.38
2022-12-08T12:00:16.603Z,83.73
2022-12-08T12:02:56.783Z,85.13
2022-12-08T12:06:30.788Z,85.75
2022-12-08T12:09:10.135Z,83.88
2022-12-08T12:12:21.169Z,83.94
2022-12-08T12:14:51.198Z,84.64
2022-12-08T12:17:31.420Z,84.20
2022-12-08T12:20:03.873Z,84.37
2022-12-08T12:22:35.960Z,85.69
2022-12-08T12:25:04.131Z,85.27
2022-12-08T12:27:40.376Z,84.34
2022-12-08T12:30:33.911Z,87.46
2022-12-08T12:33:02.424Z,88.58
2022-12-08T12:35:32.816Z,88.55
2022-12-08T12:38:25.543Z,89.16
2022-12-08T12:41:00.065Z,88.36
2022-12-08T12:43:34.515Z,89.84
2022-12-08T12:46:23.501Z,89.31
2022-12-08T12:48:52.322Z,90.04
2022-12-08T12:51:44.796Z,90.93
2022-12-08T12:54:29.347Z,90.13
2022-12-08T12:57:05.675Z,89.38
2022-12-08T12:59:56.299Z,89.60
2022-12-08T13:02:25.102Z,89.68
2022-12-08T13:05:07.574Z,90.35
2022-12-08T13:07:44.001Z,91.04
2022-12-08T13:10:35.710Z,91.16
2022-12-08T13:13:20.152Z,92.05
2022-12-08T13:15:55.029Z,91.11
2022-12-08T13:18:29.738Z,92.31
2022-12-08T13:21:16.958Z,94.15
2022-12-08T13:23:50.166Z,93.22
2022-12-08T13:26:23.868Z,94.42
2022-12-08T13:29:01.272Z,94.19
2022-12-08T13:31:46.595Z,94.78
2022-12-08T13:34:17.446Z,94.67
2022-12-08T13:37:12.426Z,94.22
2022-12-08T13:39:39.840Z,95.32
2022-12-08T13:42:19.176Z,96.34
2022-12-08T13:45:24.087Z,96.72
2022-12-08T13:48:13.740Z,97.57
2022-12-08T13:51:10.546Z,98.09
2022-12-08T13:57:00.876Z,100.00
2022-12-08T13:59:20.900Z,100.00
2022-12-08T14:01:50.448Z,100.00
2022-12-08T14:07:10.974Z,100.00
2022-12-08T14:09:38.761Z,100.00
2022-12-08T14:12:30.225Z,100.00
2022-12-08T14:15:03.808Z,100.00
2022-12-08T14:17:33.410Z,100.00
2022-12-08T14:20:03.970Z,100.00
2022-12-08T14:22:36.633Z,100.00
2022-12-08T14:25:06.073Z,100.00
2022-12-08T14:27:36.965Z,100.00
2022-12-08T14:30:14.057Z,100.00
2022-12-08T14:32:54.772Z,100.00
2022-12-08T14:35:33.439Z,100.00
2022-12-08T14:38:21.864Z,100.00
2022-12-08T14:41:01.480Z,100.00
2022-12-08T14:43:30.716Z,100.00
2022-12-08T14:46:22.439Z,100.00
2022-12-08T14:48:49.918Z,100.00
2022-12-08T14:51:23.287Z,100.00
2022-12-08T14:54:06.106Z,100.00
2022-12-08T14:56:36.436Z,100.00
2022-12-08T14:59:06.825Z,100.00
2022-12-08T15:01:35.387Z,100.00
2022-12-08T15:04:20.069Z,100.00
2022-12-08T15:06:47.278Z,100.00
2022-12-08T15:09:36.561Z,100.00
2022-12-08T15:12:06.842Z,100.00
2022-12-08T15:14:37.051Z,100.00
2022-12-08T15:17:24.476Z,100.00
2022-12-08T15:19:59.971Z,100.00
2022-12-08T15:22:29.487Z,100.00
2022-12-08T15:24:57.863Z,100.00
2022-12-08T15:27:26.161Z,100.00
2022-12-08T15:29:53.756Z,100.00
2022-12-08T15:32:23.552Z,100.00
2022-12-08T15:34:50.935Z,100.00
2022-12-08T15:37:22.404Z,100.00
2022-12-08T15:39:50.589Z,100.00
2022-12-08T15:42:18.032Z,100.00
2022-12-08T15:44:45.391Z,100.00
2022-12-08T15:47:18.914Z,100.00
2022-12-08T15:49:47.589Z,100.00
2022-12-08T15:52:20.190Z,100.00
2022-12-08T15:54:49.068Z,100.00
2022-12-08T15:57:53.456Z,100.00
2022-12-08T16:00:52.511Z,100.00
2022-12-08T16:04:14.338Z,100.00
2022-12-08T16:09:34.476Z,100.00
2022-12-08T16:12:20.613Z,100.00
2022-12-08T16:17:35.957Z,100.00
2022-12-08T16:20:06.473Z,100.00
2022-12-08T16:25:22.708Z,100.00
2022-12-08T16:28:02.816Z,100.00
2022-12-08T16:30:30.710Z,100.00
2022-12-08T16:32:58.025Z,100.00
2022-12-08T16:35:25.325Z,100.00
2022-12-08T16:37:52.692Z,100.00
2022-12-08T16:40:20.282Z,100.00
2022-12-08T16:42:49.881Z,100.00
2022-12-08T16:45:26.299Z,100.00
2022-12-08T16:47:56.259Z,100.00
2022-12-08T16:50:27.513Z,100.00
2022-12-08T16:53:07.072Z,100.00
2022-12-08T16:55:35.381Z,100.00
2022-12-08T16:58:03.630Z,100.00
2022-12-08T17:00:37.129Z,100.00
2022-12-08T17:03:07.966Z,100.00
2022-12-08T17:05:35.780Z,100.00
2022-12-08T17:08:03.230Z,100.00
2022-12-08T17:10:34.370Z,100.00
2022-12-08T17:13:02.289Z,100.00
2022-12-08T17:15:29.573Z,100.00
2022-12-08T17:17:56.933Z,100.00
2022-12-08T17:20:26.448Z,100.00
2022-12-08T17:22:55.535Z,100.00
2022-12-08T17:25:22.974Z,100.00
2022-12-08T17:27:50.234Z,100.00
2022-12-08T17:30:18.957Z,100.00
2022-12-08T17:32:46.563Z,100.00
2022-12-08T17:35:14.475Z,100.00
2022-12-08T17:37:43.405Z,100.00
2022-12-08T17:40:10.935Z,100.00
2022-12-08T17:42:38.785Z,100.00
2022-12-08T17:45:07.527Z,100.00
2022-12-08T17:47:35.563Z,100.00
2022-12-08T17:50:03.307Z,100.00
2022-12-08T17:52:30.747Z,100.00
2022-12-08T17:54:57.990Z,100.00
2022-12-08T17:57:25.326Z,100.00
2022-12-08T17:59:52.720Z,100.00
2022-12-08T18:02:20.107Z,100.00
2022-12-08T18:04:47.513Z,100.00
2022-12-08T18:07:14.797Z,100.00
2022-12-08T18:09:42.108Z,100.00
2022-12-08T18:12:09.441Z,100.00
2022-12-08T18:14:36.774Z,100.00
2022-12-08T18:17:04.131Z,100.00
2022-12-08T18:19:31.475Z,100.00
2022-12-08T18:21:58.813Z,100.00
2022-12-08T18:24:26.266Z,100.00
2022-12-08T18:26:55.193Z,100.00
2022-12-08T18:29:23.467Z,100.00
2022-12-08T18:31:51.245Z,100.00
2022-12-08T18:34:21.532Z,100.00
2022-12-08T18:36:49.225Z,100.00
2022-12-08T18:39:28.617Z,100.00
2022-12-08T18:41:57.966Z,100.00
2022-12-08T18:44:25.460Z,100.00
2022-12-08T18:46:52.859Z,100.00
2022-12-08T18:49:20.345Z,100.00
2022-12-08T18:51:47.877Z,100.00
2022-12-08T18:54:15.237Z,100.00
2022-12-08T18:56:42.532Z,100.00
2022-12-08T18:59:12.890Z,100.00
2022-12-08T19:01:40.929Z,100.00
2022-12-08T19:04:27.951Z,100.00
2022-12-08T19:06:57.288Z,100.00
2022-12-08T19:09:26.926Z,100.00
2022-12-08T19:11:55.148Z,100.00
2022-12-08T19:14:28.089Z,100.00
2022-12-08T19:16:57.602Z,100.00
2022-12-08T19:19:26.379Z,100.00
2022-12-08T19:21:54.105Z,100.00
2022-12-08T19:24:21.452Z,100.00
2022-12-08T19:26:49.191Z,100.00
2022-12-08T19:29:16.714Z,100.00
2022-12-08T19:31:44.128Z,100.00
2022-12-08T19:34:13.353Z,100.00
2022-12-08T19:36:44.483Z,100.00
2022-12-08T19:39:34.378Z,100.00
2022-12-08T19:42:19.883Z,100.00
2022-12-08T19:44:53.066Z,100.00
2022-12-08T19:47:23.260Z,100.00
2022-12-08T19:49:50.940Z,100.00
2022-12-08T19:52:18.914Z,100.00
2022-12-08T19:54:47.217Z,100.00
2022-12-08T19:57:14.654Z,100.00
2022-12-08T19:59:41.957Z,100.00
2022-12-08T20:02:11.123Z,100.00
2022-12-08T20:04:38.598Z,100.00
2022-12-08T20:07:05.898Z,100.00
2022-12-08T20:09:33.215Z,100.00
2022-12-08T20:12:00.539Z,100.00
2022-12-08T20:14:27.861Z,100.00
2022-12-08T20:16:55.233Z,100.00
2022-12-08T20:19:22.724Z,100.00
2022-12-08T20:21:50.126Z,100.00
2022-12-08T20:24:17.553Z,100.00
2022-12-08T20:26:44.971Z,100.00
2022-12-08T20:29:14.813Z,100.00
2022-12-08T20:31:42.278Z,100.00
2022-12-08T20:34:15.400Z,100.00
2022-12-08T20:36:43.348Z,100.00
2022-12-08T20:39:16.345Z,100.00
2022-12-08T20:41:46.153Z,100.00
2022-12-08T20:44:14.009Z,100.00
2022-12-08T20:46:49.269Z,100.00
2022-12-08T20:49:17.617Z,100.00
2022-12-08T20:51:45.545Z,100.00
2022-12-08T20:54:14.478Z,100.00
2022-12-08T20:56:48.053Z,100.00
2022-12-08T20:59:18.294Z,100.00
2022-12-08T21:01:46.301Z,100.00
2022-12-08T21:04:14.369Z,100.00
2022-12-08T21:06:42.504Z,100.00
2022-12-08T21:09:10.438Z,100.00
2022-12-08T21:11:38.528Z,100.00
2022-12-08T21:14:06.554Z,100.00
2022-12-08T21:16:34.728Z,100.00
2022-12-08T21:19:02.721Z,100.00
2022-12-08T21:21:30.629Z,100.00
2022-12-08T21:23:58.582Z,100.00
2022-12-08T21:26:26.918Z,100.00
2022-12-08T21:28:55.626Z,100.00
2022-12-08T21:31:23.588Z,100.00
2022-12-08T21:33:51.084Z,100.00
2022-12-08T21:36:21.009Z,100.00
2022-12-08T21:38:48.985Z,100.00
2022-12-08T21:41:38.806Z,100.00
2022-12-08T21:44:07.271Z,100.00
2022-12-08T21:46:35.601Z,100.00
2022-12-08T21:49:04.457Z,100.00
2022-12-08T21:51:33.888Z,100.00
2022-12-08T21:54:01.340Z,100.00
2022-12-08T21:56:28.662Z,100.00
2022-12-08T21:58:56.260Z,100.00
2022-12-08T22:01:23.874Z,100.00
2022-12-08T22:03:51.432Z,100.00
2022-12-08T22:06:19.033Z,100.00
2022-12-08T22:08:46.820Z,100.00
2022-12-08T22:11:14.273Z,100.00
2022-12-08T22:13:42.415Z,100.00
2022-12-08T22:16:12.700Z,100.00
2022-12-08T22:18:40.641Z,100.00
2022-12-08T22:21:16.040Z,100.00
2022-12-08T22:23:44.540Z,100.00
2022-12-08T22:26:12.634Z,100.00
2022-12-08T22:28:41.712Z,100.00
2022-12-08T22:31:18.389Z,100.00
2022-12-08T22:33:45.925Z,100.00
2022-12-08T22:36:18.160Z,100.00
2022-12-08T22:38:46.079Z,100.00
2022-12-08T22:41:13.556Z,100.00
2022-12-08T22:43:42.001Z,100.00
2022-12-08T22:46:12.824Z,100.00
2022-12-08T22:48:40.516Z,100.00
2022-12-08T22:51:07.939Z,100.00
2022-12-08T22:53:35.306Z,100.00
2022-12-08T22:56:07.516Z,100.00
2022-12-08T22:58:34.865Z,100.00
2022-12-08T23:01:02.693Z,100.00
2022-12-08T23:03:30.258Z,100.00
2022-12-08T23:05:58.069Z,100.00
2022-12-08T23:08:25.601Z,100.00
2022-12-08T23:10:54.379Z,100.00
2022-12-08T23:13:21.931Z,100.00
2022-12-08T23:15:49.591Z,100.00
2022-12-08T23:18:19.284Z,100.00
2022-12-08T23:20:47.632Z,100.00
2022-12-08T23:23:15.464Z,100.00
2022-12-08T23:25:43.876Z,100.00
2022-12-08T23:28:13.233Z,100.00
2022-12-08T23:30:42.034Z,100.00
2022-12-08T23:33:09.444Z,100.00
2022-12-08T23:35:36.935Z,100.00
2022-12-08T23:38:04.675Z,100.00
2022-12-08T23:40:32.355Z,100.00
2022-12-08T23:42:59.686Z,100.00
2022-12-08T23:45:27.092Z,100.00
2022-12-08T23:47:54.610Z,100.00
2022-12-08T23:50:22.049Z,100.00
2022-12-08T23:52:49.534Z,100.00
2022-12-08T23:55:17.527Z,100.00
2022-12-08T23:57:45.047Z,100.00
